Time;durP1;ratioP1;P1;durP2;ratioP2;P2;SDS_P1;SDS_P2;PMS_P1;PMS_P2;Temp;Humidity;BMP_temperature;BMP_pressure;BME280_temperature;BME280_humidity;BME280_pressure;Samples;Min_cycle;Max_cycle;Signal;HPM_P1;HPM_P2
2023/04/04 00:02:09;;;;;;;3.73;3.10;;;;;;;-1.21;95.33;97223.50;5058704;28;20539;-73
2023/04/04 00:04:35;;;;;;;4.50;3.40;;;;;;;-1.38;93.13;97191.50;5085335;28;20432;-74
2023/04/04 00:07:02;;;;;;;3.77;2.90;;;;;;;-1.20;94.90;97222.50;5075051;28;20459;-74
2023/04/04 00:09:29;;;;;;;2.87;2.23;;;;;;;-1.44;95.64;97181.28;5073388;28;20460;-74
2023/04/04 00:11:56;;;;;;;4.43;2.90;;;;;;;-1.29;95.37;97210.91;5048386;28;20878;-74
2023/04/04 00:14:23;;;;;;;7.37;3.03;;;;;;;-1.29;94.49;97221.25;5063081;28;20478;-74
2023/04/04 00:16:50;;;;;;;3.40;2.20;;;;;;;-1.40;93.43;97197.94;5055298;28;20460;-73
2023/04/04 00:19:17;;;;;;;6.10;2.87;;;;;;;-1.29;94.90;97208.31;5035463;28;20437;-73
2023/04/04 00:21:47;;;;;;;4.00;3.37;;;;;;;-1.31;93.81;97217.34;5068124;28;20460;-74
2023/04/04 00:24:13;;;;;;;3.93;2.50;;;;;;;-1.72;93.04;97162.03;5065136;28;20468;-74
2023/04/04 00:26:40;;;;;;;3.13;2.63;;;;;;;-1.62;93.36;97185.56;5048620;28;20476;-74
2023/04/04 00:29:07;;;;;;;2.00;1.80;;;;;;;-1.66;94.04;97183.66;5075086;28;20861;-73
2023/04/04 00:31:33;;;;;;;3.87;2.43;;;;;;;-1.65;93.89;97174.84;5074936;28;21006;-73
2023/04/04 00:34:00;;;;;;;4.93;2.43;;;;;;;-1.44;94.12;97205.41;5041761;28;20445;-73
2023/04/04 00:36:27;;;;;;;2.90;2.27;;;;;;;-1.68;95.99;97181.28;5060805;28;20465;-73
2023/04/04 00:38:54;;;;;;;2.60;2.40;;;;;;;-1.67;95.02;97176.88;5044331;28;20530;-73
2023/04/04 00:41:21;;;;;;;3.57;2.80;;;;;;;-1.65;95.44;97172.25;5060550;28;20890;-73
2023/04/04 00:43:48;;;;;;;7.20;3.60;;;;;;;-1.41;97.65;97198.97;5075136;28;20429;-73
2023/04/04 00:46:17;;;;;;;3.20;3.00;;;;;;;-1.68;97.11;97183.09;5052086;28;20445;-73
2023/04/04 00:48:44;;;;;;;2.90;2.70;;;;;;;-1.84;96.63;97145.69;5063253;28;20428;-73
2023/04/04 00:51:11;;;;;;;4.67;3.23;;;;;;;-1.73;99.26;97157.06;5074448;28;20466;-73
2023/04/04 00:53:38;;;;;;;3.20;3.00;;;;;;;-1.59;100.00;97184.34;5057905;28;20442;-73
2023/04/04 00:56:08;;;;;;;4.97;4.57;;;;;;;-1.56;100.00;97187.25;5092654;28;20455;-73
2023/04/04 00:58:35;;;;;;;9.10;3.60;;;;;;;-1.79;100.00;97156.94;5058158;28;20436;-73
2023/04/04 01:01:02;;;;;;;3.70;3.40;;;;;;;-1.66;100.00;97183.66;5054347;28;20545;-73
2023/04/04 01:03:29;;;;;;;3.50;3.17;;;;;;;-1.72;100.00;97169.03;5054461;28;20442;-73
2023/04/04 01:05:56;;;;;;;4.93;2.90;;;;;;;-1.92;100.00;97156.38;5037926;28;20511;-73
2023/04/04 01:08:26;;;;;;;3.50;2.90;;;;;;;-2.14;100.00;97135.44;5054196;28;20547;-73
2023/04/04 01:10:53;;;;;;;5.10;3.43;;;;;;;-1.78;100.00;97170.69;5037897;28;20463;-73
2023/04/04 01:13:20;;;;;;;4.43;2.50;;;;;;;-1.95;100.00;97136.13;5051421;28;20488;-73
2023/04/04 01:15:49;;;;;;;3.93;2.77;;;;;;;-1.86;100.00;97171.06;5034349;28;20469;-75
2023/04/04 01:18:20;;;;;;;3.00;2.80;;;;;;;-2.20;100.00;97121.59;5069593;28;20476;-73
2023/04/04 01:21:09;;;;;;;3.90;3.33;;;;;;;-1.90;100.00;97162.13;5074456;28;20869;-73
2023/04/04 01:24:02;;;;;;;3.20;3.00;;;;;;;-2.09;100.00;97153.69;5074247;28;20439;-73
2023/04/04 01:26:40;;;;;;;3.53;2.93;;;;;;;-1.94;100.00;97141.06;5071743;28;20763;-73
2023/04/04 01:29:07;;;;;;;3.53;3.07;;;;;;;-2.24;100.00;97130.81;5074102;28;20489;-73
2023/04/04 01:31:39;;;;;;;5.17;3.83;;;;;;;-2.10;100.00;97150.31;5074347;28;20458;-73
2023/04/04 01:34:22;;;;;;;3.67;3.37;;;;;;;-2.11;100.00;97164.28;5056921;28;20437;-73
2023/04/04 01:36:56;;;;;;;4.07;3.27;;;;;;;-2.21;100.00;97156.28;5050692;28;20487;-73
2023/04/04 01:39:31;;;;;;;5.60;3.53;;;;;;;-2.34;100.00;97155.69;5052658;28;20420;-73
2023/04/04 01:42:00;;;;;;;4.27;3.10;;;;;;;-2.52;100.00;97139.25;5050671;28;20468;-76
2023/04/04 01:44:28;;;;;;;7.20;3.63;;;;;;;-2.64;100.00;97143.59;5066982;28;20464;-73
2023/04/04 01:46:55;;;;;;;3.60;3.30;;;;;;;-2.58;100.00;97140.13;5044508;28;20426;-73
2023/04/04 01:49:22;;;;;;;10.27;4.87;;;;;;;-2.85;100.00;97113.84;5040592;28;20535;-73
2023/04/04 01:51:51;;;;;;;5.23;3.83;;;;;;;-2.81;100.00;97117.53;5053638;28;20460;-73
2023/04/04 01:54:19;;;;;;;4.90;4.30;;;;;;;-2.91;100.00;97099.22;5034290;28;20445;-73
2023/04/04 01:56:46;;;;;;;4.70;3.80;;;;;;;-2.65;100.00;97142.03;5045779;28;20552;-73
2023/04/04 01:59:12;;;;;;;4.77;3.70;;;;;;;-2.72;100.00;97115.44;5046460;28;20488;-73
2023/04/04 02:01:39;;;;;;;8.03;4.13;;;;;;;-2.74;100.00;97120.84;5077912;28;20816;-73
2023/04/04 02:04:07;;;;;;;7.50;4.03;;;;;;;-2.80;100.00;97108.81;5078031;28;20450;-73
2023/04/04 02:06:35;;;;;;;3.77;3.40;;;;;;;-2.63;100.00;97123.69;5076287;28;20443;-74
2023/04/04 02:09:02;;;;;;;3.43;2.93;;;;;;;-2.87;100.00;97107.31;5062490;28;20444;-73
2023/04/04 02:11:28;;;;;;;4.80;4.27;;;;;;;-2.77;100.00;97130.84;5076670;28;20452;-73
2023/04/04 02:13:56;;;;;;;3.33;3.03;;;;;;;-2.94;100.00;97093.66;5055411;28;20535;-73
2023/04/04 02:16:24;;;;;;;5.20;3.17;;;;;;;-2.93;100.00;97105.63;5055860;28;20811;-73
2023/04/04 02:18:51;;;;;;;2.97;2.77;;;;;;;-2.79;100.00;97122.53;5065475;28;20500;-73
2023/04/04 02:21:18;;;;;;;3.10;2.90;;;;;;;-2.76;100.00;97125.44;5068808;28;20460;-73
2023/04/04 02:23:45;;;;;;;8.80;3.30;;;;;;;-3.00;100.00;97090.19;5066704;28;20972;-73
2023/04/04 02:26:13;;;;;;;3.13;2.93;;;;;;;-2.98;100.00;97081.19;5043890;28;20549;-73
2023/04/04 02:28:39;;;;;;;2.83;2.63;;;;;;;-2.89;100.00;97104.16;5057410;28;20490;-73
2023/04/04 02:31:08;;;;;;;4.10;3.77;;;;;;;-3.11;100.00;97096.09;5041021;28;20443;-73
2023/04/04 02:33:35;;;;;;;4.70;3.60;;;;;;;-3.03;100.00;97111.31;5057262;28;20432;-73
2023/04/04 02:36:04;;;;;;;5.27;3.60;;;;;;;-3.13;100.00;97093.72;5054405;28;20468;-73
2023/04/04 02:38:32;;;;;;;4.57;3.97;;;;;;;-3.18;100.00;97101.38;5056675;28;20441;-73
2023/04/04 02:41:01;;;;;;;6.63;4.27;;;;;;;-3.11;100.00;97114.19;5056152;28;20965;-74
2023/04/04 02:43:27;;;;;;;8.27;6.13;;;;;;;-3.34;100.00;97092.44;5075312;28;20825;-73
2023/04/04 02:45:54;;;;;;;5.40;4.90;;;;;;;-3.44;100.00;97075.84;5058700;28;20463;-73
2023/04/04 02:48:24;;;;;;;4.53;4.13;;;;;;;-3.30;100.00;97118.63;5048726;28;20949;-73
2023/04/04 02:50:53;;;;;;;4.77;3.77;;;;;;;-3.28;100.00;97119.19;5036905;28;20448;-73
2023/04/04 02:53:20;;;;;;;4.03;3.40;;;;;;;-3.53;100.00;97075.34;5049672;28;20453;-73
2023/04/04 02:55:49;;;;;;;4.33;3.00;;;;;;;-3.18;100.00;97126.44;5040716;28;20521;-73
2023/04/04 02:58:16;;;;;;;3.33;3.07;;;;;;;-3.31;100.00;97135.16;5066771;28;20420;-72
2023/04/04 03:00:42;;;;;;;4.43;3.20;;;;;;;-3.22;100.00;97133.81;5053464;28;20531;-73
2023/04/04 03:03:10;;;;;;;5.00;4.47;;;;;;;-3.52;100.00;97126.03;5068130;28;20815;-73
2023/04/04 03:05:42;;;;;;;3.50;3.20;;;;;;;-4.02;100.00;97051.28;5053419;28;20893;-73
2023/04/04 03:08:08;;;;;;;3.30;3.10;;;;;;;-3.28;100.00;97129.53;5050882;28;20479;-73
2023/04/04 03:10:35;;;;;;;3.60;2.77;;;;;;;-3.21;100.00;97121.69;5056499;28;20950;-73
2023/04/04 03:13:02;;;;;;;3.03;2.83;;;;;;;-3.18;100.00;97123.84;5053993;28;20951;-73
2023/04/04 03:15:31;;;;;;;6.03;3.90;;;;;;;-3.54;100.00;97078.16;5060161;28;20449;-73
2023/04/04 03:17:58;;;;;;;3.03;2.83;;;;;;;-3.81;100.00;97088.81;5082896;28;20976;-73
2023/04/04 03:20:27;;;;;;;6.40;3.60;;;;;;;-3.75;100.00;97074.22;5056417;28;20803;-73
2023/04/04 03:22:54;;;;;;;6.07;4.57;;;;;;;-4.01;100.00;97073.50;5070632;28;20894;-73
2023/04/04 03:25:21;;;;;;;10.87;5.03;;;;;;;-3.57;100.00;97108.59;5076513;28;21012;-73
2023/04/04 03:27:48;;;;;;;4.60;3.70;;;;;;;-3.74;100.00;97115.38;5076349;28;20865;-73
2023/04/04 03:30:25;;;;;;;5.13;3.87;;;;;;;-4.08;100.00;97070.22;5076542;28;20423;-73
2023/04/04 03:32:54;;;;;;;4.00;3.53;;;;;;;-3.71;100.00;97107.19;5068557;28;20598;-73
2023/04/04 03:35:20;;;;;;;5.83;4.50;;;;;;;-3.66;100.00;97096.97;5060936;28;20437;-73
2023/04/04 03:37:47;;;;;;;6.63;4.47;;;;;;;-3.65;100.00;97113.25;5052827;28;20514;-73
2023/04/04 03:40:14;;;;;;;4.20;3.67;;;;;;;-3.67;100.00;97097.19;5045414;28;20528;-73
2023/04/04 03:42:41;;;;;;;9.10;3.50;;;;;;;-3.67;100.00;97087.66;5051952;28;20858;-73
2023/04/04 03:45:10;;;;;;;4.07;3.77;;;;;;;-3.83;100.00;97070.16;5061649;28;20451;-73
2023/04/04 03:47:37;;;;;;;3.33;3.03;;;;;;;-3.51;100.00;97104.34;5053522;28;20441;-73
2023/04/04 03:50:05;;;;;;;3.70;3.37;;;;;;;-3.62;100.00;97085.19;5048537;28;20441;-73
2023/04/04 03:52:36;;;;;;;5.40;3.50;;;;;;;-3.74;100.00;97078.38;5039473;28;20497;-73
2023/04/04 03:55:03;;;;;;;4.90;3.50;;;;;;;-3.91;100.00;97053.16;5039905;28;20804;-73
2023/04/04 03:57:30;;;;;;;4.70;4.30;;;;;;;-3.69;100.00;97065.63;5052301;28;20456;-73
2023/04/04 03:59:57;;;;;;;3.47;3.23;;;;;;;-3.64;100.00;97100.13;5052946;28;21001;-73
2023/04/04 04:02:24;;;;;;;7.30;3.70;;;;;;;-3.82;100.00;97081.28;5062167;28;20506;-73
2023/04/04 04:04:51;;;;;;;10.63;4.30;;;;;;;-3.98;100.00;97064.56;5049789;28;20439;-73
2023/04/04 04:07:17;;;;;;;8.33;4.37;;;;;;;-4.15;100.00;97054.00;5073646;28;20532;-73
2023/04/04 04:09:44;;;;;;;6.13;4.73;;;;;;;-3.96;100.00;97090.97;5049735;28;20481;-73
2023/04/04 04:12:11;;;;;;;7.40;3.97;;;;;;;-4.03;100.00;97070.34;5055619;28;20452;-73
2023/04/04 04:14:38;;;;;;;9.03;4.57;;;;;;;-4.14;100.00;97065.13;5055528;28;20440;-73
2023/04/04 04:17:06;;;;;;;6.00;4.93;;;;;;;-4.08;100.00;97067.63;5055800;28;20460;-73
2023/04/04 04:19:33;;;;;;;6.67;4.30;;;;;;;-3.87;100.00;97089.69;5055543;28;20432;-73
2023/04/04 04:22:00;;;;;;;8.57;5.90;;;;;;;-3.94;100.00;97084.56;5046324;28;20458;-73
2023/04/04 04:24:27;;;;;;;5.80;4.80;;;;;;;-4.14;100.00;97067.69;5075411;28;20447;-73
2023/04/04 04:26:53;;;;;;;5.60;5.00;;;;;;;-3.78;100.00;97082.41;5075418;28;20514;-73
2023/04/04 04:29:20;;;;;;;6.17;5.50;;;;;;;-3.99;100.00;97060.41;5057094;28;20438;-73
2023/04/04 04:31:47;;;;;;;5.23;4.73;;;;;;;-4.14;100.00;97047.03;5055022;28;20478;-73
2023/04/04 04:34:14;;;;;;;5.73;5.07;;;;;;;-4.00;100.00;97093.19;5054077;28;20793;-73
2023/04/04 04:36:41;;;;;;;4.40;4.00;;;;;;;-3.98;100.00;97075.69;5040070;28;20990;-73
2023/04/04 04:39:18;;;;;;;6.13;4.50;;;;;;;-3.81;100.00;97088.81;5061693;28;20947;-73
2023/04/04 04:41:59;;;;;;;5.60;3.67;;;;;;;-3.79;100.00;97080.84;5047878;28;20503;-73
2023/04/04 04:44:26;;;;;;;4.63;4.23;;;;;;;-3.49;100.00;97106.72;5038563;28;20490;-73
2023/04/04 04:46:54;;;;;;;8.00;3.50;;;;;;;-3.42;100.00;97092.72;5054800;28;20433;-73
2023/04/04 04:49:21;;;;;;;4.73;4.30;;;;;;;-3.61;100.00;97078.22;5055132;28;20437;-73
2023/04/04 04:51:49;;;;;;;4.80;3.63;;;;;;;-3.70;100.00;97095.84;5034805;28;20518;-72
2023/04/04 04:54:18;;;;;;;3.87;2.67;;;;;;;-3.68;100.00;97093.81;5035277;28;20968;-73
2023/04/04 04:56:46;;;;;;;3.67;3.43;;;;;;;-3.72;100.00;97078.97;5044055;28;20498;-73
2023/04/04 04:59:14;;;;;;;4.23;3.60;;;;;;;-3.80;100.00;97071.50;5074678;28;20484;-73
2023/04/04 05:01:42;;;;;;;4.13;3.83;;;;;;;-3.89;100.00;97084.72;5074799;28;20467;-73
2023/04/04 05:04:09;;;;;;;3.70;3.40;;;;;;;-3.94;100.00;97081.19;5093055;28;20455;-73
2023/04/04 05:06:43;;;;;;;6.03;3.90;;;;;;;-3.73;100.00;97090.31;5058955;28;20449;-73
2023/04/04 05:09:11;;;;;;;4.50;4.03;;;;;;;-3.84;100.00;97080.72;5075077;28;20465;-73
2023/04/04 05:11:38;;;;;;;4.33;3.93;;;;;;;-3.85;100.00;97081.72;5079161;28;20447;-72
2023/04/04 05:14:07;;;;;;;6.17;5.57;;;;;;;-3.50;100.00;97103.34;5091584;28;20409;-72
2023/04/04 05:16:39;;;;;;;7.77;4.90;;;;;;;-3.67;100.00;97090.22;5081336;28;20467;-72
2023/04/04 05:19:06;;;;;;;13.47;6.03;;;;;;;-3.68;100.00;97070.56;5070517;28;20485;-72
2023/04/04 05:21:39;;;;;;;7.90;4.83;;;;;;;-3.82;100.00;97073.53;5058297;28;20526;-73
2023/04/04 05:24:10;;;;;;;8.20;7.03;;;;;;;-3.64;100.00;97081.25;5034727;28;20996;-73
2023/04/04 05:26:38;;;;;;;10.23;9.20;;;;;;;-3.67;100.00;97085.06;5051063;28;20503;-73
2023/04/04 05:29:05;;;;;;;9.20;6.07;;;;;;;-3.66;100.00;97078.09;5027147;28;20437;-73
2023/04/04 05:31:32;;;;;;;6.63;5.97;;;;;;;-3.42;100.00;97092.72;5033842;28;20465;-73
2023/04/04 05:34:07;;;;;;;5.03;4.53;;;;;;;-3.40;100.00;97079.56;5061760;28;20865;-73
2023/04/04 05:36:36;;;;;;;4.13;3.83;;;;;;;-3.22;100.00;97110.56;5041039;28;20948;-73
2023/04/04 05:39:05;;;;;;;4.60;4.20;;;;;;;-3.46;100.00;97076.09;5037316;28;20499;-73
2023/04/04 05:41:35;;;;;;;6.80;4.00;;;;;;;-3.21;100.00;97075.94;5048147;28;20876;-73
2023/04/04 05:44:10;;;;;;;6.40;3.90;;;;;;;-3.03;100.00;97081.06;5058736;28;20481;-73
2023/04/04 05:46:37;;;;;;;5.80;3.83;;;;;;;-3.06;100.00;97117.72;5062804;28;20436;-73
2023/04/04 05:49:04;;;;;;;4.47;4.10;;;;;;;-3.03;100.00;97100.97;5051795;28;20435;-73
2023/04/04 05:51:33;;;;;;;4.07;3.77;;;;;;;-2.91;100.00;97094.03;5062376;28;20490;-73
2023/04/04 05:54:06;;;;;;;5.37;3.40;;;;;;;-3.16;100.00;97101.94;5067637;28;20431;-73
2023/04/04 05:56:34;;;;;;;5.90;3.10;;;;;;;-3.38;100.00;97068.00;5074477;28;20496;-73
2023/04/04 05:59:03;;;;;;;7.07;3.57;;;;;;;-3.23;100.00;97080.53;5074275;28;20925;-73
2023/04/04 06:01:35;;;;;;;6.20;4.07;;;;;;;-3.40;100.00;97079.56;5074070;28;20459;-73
2023/04/04 06:04:08;;;;;;;3.87;3.33;;;;;;;-3.45;100.00;97085.41;5074593;28;20534;-73
2023/04/04 06:06:35;;;;;;;3.50;3.20;;;;;;;-3.16;100.00;97114.88;5073753;28;20538;-73
2023/04/04 06:09:02;;;;;;;4.23;3.83;;;;;;;-3.39;100.00;97079.34;5073935;28;20957;-73
2023/04/04 06:11:28;;;;;;;4.13;3.40;;;;;;;-3.22;100.00;97097.63;5073631;28;20554;-73
2023/04/04 06:14:02;;;;;;;5.43;3.60;;;;;;;-3.18;100.00;97093.63;5074106;28;20801;-75
2023/04/04 06:16:28;;;;;;;6.90;4.53;;;;;;;-3.04;100.00;97104.56;5089782;28;20423;-73
2023/04/04 06:18:55;;;;;;;4.77;4.27;;;;;;;-2.90;100.00;97118.09;5053723;28;20464;-73
2023/04/04 06:21:22;;;;;;;7.87;4.47;;;;;;;-2.87;100.00;97100.34;5053153;28;20452;-73
2023/04/04 06:23:49;;;;;;;7.70;4.63;;;;;;;-2.65;100.00;97110.97;5053649;28;21002;-73
2023/04/04 06:26:15;;;;;;;12.20;6.20;;;;;;;-2.57;100.00;97086.53;5053335;28;20427;-73
2023/04/04 06:28:50;;;;;;;7.87;6.10;;;;;;;-2.26;100.00;97088.03;5060100;28;20432;-73
2023/04/04 06:31:21;;;;;;;7.10;4.33;;;;;;;-2.11;100.00;97085.78;5048686;28;20492;-73
2023/04/04 06:33:51;;;;;;;5.97;4.17;;;;;;;-1.71;100.00;97129.91;5045946;28;20436;-73
2023/04/04 06:36:20;;;;;;;4.70;3.47;;;;;;;-1.68;100.00;97097.56;5053855;28;20467;-73
2023/04/04 06:38:47;;;;;;;3.40;3.10;;;;;;;-1.53;100.00;97090.06;5047314;28;20491;-73
2023/04/04 06:41:17;;;;;;;5.03;3.30;;;;;;;-1.35;100.00;97074.34;5040602;28;20798;-73
2023/04/04 06:43:47;;;;;;;5.20;4.50;;;;;;;-0.96;100.00;97116.81;5071639;28;20428;-73
2023/04/04 06:46:14;;;;;;;5.43;4.30;;;;;;;-1.02;100.00;97098.81;5074181;28;20430;-73
2023/04/04 06:48:41;;;;;;;4.40;4.00;;;;;;;-1.18;100.00;97095.16;5054808;28;20474;-73
2023/04/04 06:51:08;;;;;;;4.23;3.80;;;;;;;-0.99;100.00;97106.91;5052668;28;20447;-73
2023/04/04 06:53:38;;;;;;;4.40;4.00;;;;;;;-1.07;100.00;97094.31;5054311;28;20440;-73
2023/04/04 06:56:05;;;;;;;4.40;4.00;;;;;;;-0.91;100.00;97096.16;5068555;28;20479;-73
2023/04/04 06:58:32;;;;;;;6.77;3.93;;;;;;;-0.52;100.00;97103.28;5040084;28;20563;-73
2023/04/04 07:01:00;;;;;;;5.90;3.50;;;;;;;0.03;100.00;97128.53;5057143;28;20434;-73
2023/04/04 07:03:27;;;;;;;4.40;4.00;;;;;;;0.28;100.00;97121.06;5040163;28;20443;-73
2023/04/04 07:05:53;;;;;;;4.23;3.83;;;;;;;0.37;100.00;97105.81;5056657;28;20489;-73
2023/04/04 07:08:20;;;;;;;9.43;3.83;;;;;;;0.58;100.00;97103.22;5056701;28;20432;-73
2023/04/04 07:10:47;;;;;;;5.13;3.80;;;;;;;0.88;100.00;97123.59;5067691;28;20548;-73
2023/04/04 07:13:14;;;;;;;4.43;3.77;;;;;;;0.78;100.00;97096.66;5074350;28;20452;-73
2023/04/04 07:15:47;;;;;;;4.30;3.83;;;;;;;1.34;100.00;97136.31;5046215;28;20854;-74
2023/04/04 07:18:15;;;;;;;3.90;3.60;;;;;;;0.92;100.00;97113.47;5039587;28;20469;-74
2023/04/04 07:20:42;;;;;;;3.97;3.67;;;;;;;0.34;100.00;97093.31;5070662;28;20507;-74
2023/04/04 07:23:10;;;;;;;3.70;3.27;;;;;;;0.71;100.00;97137.72;5042353;28;20555;-74
2023/04/04 07:25:37;;;;;;;4.87;4.17;;;;;;;0.71;100.00;97142.91;5039973;28;20875;-74
2023/04/04 07:28:04;;;;;;;4.23;3.83;;;;;;;0.52;100.00;97127.59;5074488;28;20515;-74
2023/04/04 07:30:38;;;;;;;5.27;3.80;;;;;;;0.68;100.00;97122.59;5048616;28;20937;-74
2023/04/04 07:33:06;;;;;;;4.53;4.13;;;;;;;0.57;100.00;97106.06;5064681;28;20452;-74
2023/04/04 07:35:33;;;;;;;4.33;3.90;;;;;;;0.67;100.00;97137.41;5037311;28;20433;-74
2023/04/04 07:38:00;;;;;;;4.20;3.77;;;;;;;0.49;98.13;97106.50;5054892;28;20883;-74
2023/04/04 07:40:27;;;;;;;4.47;3.23;;;;;;;0.34;98.20;97072.50;5040501;28;20474;-74
2023/04/04 07:42:53;;;;;;;3.23;2.97;;;;;;;1.03;96.05;97127.38;5036187;28;20980;-74
2023/04/04 07:45:23;;;;;;;5.40;4.00;;;;;;;1.33;89.75;97152.94;5049940;28;20436;-74
2023/04/04 07:47:50;;;;;;;4.03;3.60;;;;;;;1.18;86.49;97136.13;5068481;28;20535;-74
2023/04/04 07:50:17;;;;;;;4.13;3.73;;;;;;;1.18;90.23;97162.16;5056306;28;20498;-74
2023/04/04 07:52:51;;;;;;;3.40;3.10;;;;;;;1.05;91.02;97159.94;5061645;28;20463;-74
2023/04/04 07:55:18;;;;;;;4.97;3.80;;;;;;;0.79;90.41;97150.28;5087874;28;20433;-74
2023/04/04 07:57:45;;;;;;;4.67;3.70;;;;;;;0.38;93.11;97123.00;5044487;28;20552;-74
2023/04/04 08:00:13;;;;;;;5.77;3.43;;;;;;;0.75;94.29;97163.00;5074000;28;20852;-74
2023/04/04 08:02:43;;;;;;;3.97;3.50;;;;;;;0.34;93.39;97137.50;5045069;28;20460;-74
2023/04/04 08:05:10;;;;;;;4.93;3.90;;;;;;;0.37;94.12;97134.41;5090349;28;20423;-74
2023/04/04 08:07:36;;;;;;;3.93;3.63;;;;;;;0.99;96.45;97127.09;5066044;28;20464;-74
2023/04/04 08:10:04;;;;;;;8.13;4.30;;;;;;;1.16;90.43;97121.78;5055455;28;20444;-75
2023/04/04 08:12:31;;;;;;;5.40;4.20;;;;;;;1.14;92.53;97157.72;5064673;28;20524;-74
2023/04/04 08:14:57;;;;;;;4.27;3.90;;;;;;;0.46;93.75;97135.59;5054624;28;20930;-74
2023/04/04 08:17:24;;;;;;;4.73;4.13;;;;;;;0.55;95.88;97136.75;5082947;28;20466;-75
2023/04/04 08:19:51;;;;;;;5.10;4.80;;;;;;;0.62;96.23;97133.97;5058137;28;20428;-75
2023/04/04 08:22:18;;;;;;;4.53;4.10;;;;;;;0.40;93.38;97128.72;5064131;28;20563;-75
2023/04/04 08:24:45;;;;;;;4.77;3.60;;;;;;;0.25;91.87;97122.31;5072549;28;20425;-74
2023/04/04 08:27:13;;;;;;;7.40;4.60;;;;;;;0.53;92.22;97152.56;5054983;28;20444;-74
2023/04/04 08:29:40;;;;;;;3.00;2.80;;;;;;;0.65;88.15;97164.69;5063908;28;20437;-75
2023/04/04 08:32:08;;;;;;;5.33;3.97;;;;;;;1.06;89.16;97171.16;5043038;28;20465;-75
2023/04/04 08:34:34;;;;;;;4.17;3.77;;;;;;;0.65;88.00;97165.47;5053040;28;20437;-74
2023/04/04 08:37:01;;;;;;;4.47;4.00;;;;;;;0.36;87.94;97143.25;5055072;28;20477;-75
2023/04/04 08:39:27;;;;;;;4.63;3.73;;;;;;;0.55;88.46;97105.53;5073302;28;20547;-75
2023/04/04 08:42:04;;;;;;;4.93;4.50;;;;;;;0.82;84.91;97129.00;5073088;28;20475;-75
2023/04/04 08:44:32;;;;;;;3.57;3.27;;;;;;;0.89;86.61;97153.78;5059505;28;20412;-75
2023/04/04 08:47:03;;;;;;;4.20;3.80;;;;;;;0.95;85.80;97131.22;5051414;28;20798;-75
2023/04/04 08:49:34;;;;;;;5.27;3.67;;;;;;;1.00;87.08;97125.28;5042723;28;20460;-75
2023/04/04 08:52:02;;;;;;;4.43;3.70;;;;;;;0.97;86.52;97150.00;5054525;28;20460;-74
2023/04/04 08:54:30;;;;;;;4.67;3.90;;;;;;;1.43;86.16;97158.25;5060247;28;20443;-75
2023/04/04 08:56:57;;;;;;;7.00;4.33;;;;;;;1.44;87.05;97128.56;5048061;28;20454;-75
2023/04/04 08:59:23;;;;;;;4.97;4.57;;;;;;;1.29;85.57;97138.84;5057870;28;20459;-74
2023/04/04 09:02:08;;;;;;;4.00;3.63;;;;;;;1.58;87.63;97142.75;5074665;28;20972;-75
2023/04/04 09:04:35;;;;;;;4.63;4.03;;;;;;;1.64;88.22;97152.19;5081074;28;20512;-75
2023/04/04 09:07:02;;;;;;;4.03;3.73;;;;;;;1.17;88.53;97139.78;5063871;28;21024;-75
2023/04/04 09:09:31;;;;;;;5.07;4.53;;;;;;;0.54;89.09;97102.16;5051100;28;20460;-75
2023/04/04 09:12:01;;;;;;;5.67;4.33;;;;;;;1.01;90.96;97150.28;5060150;28;20468;-75
2023/04/04 09:14:32;;;;;;;5.53;4.27;;;;;;;1.23;90.87;97142.44;5061525;28;20964;-75
2023/04/04 09:16:59;;;;;;;5.87;4.70;;;;;;;1.00;91.55;97123.47;5041376;28;20532;-75
2023/04/04 09:19:26;;;;;;;4.37;3.97;;;;;;;1.06;91.56;97145.13;5064814;28;20463;-74
2023/04/04 09:21:53;;;;;;;8.93;5.43;;;;;;;0.90;94.44;97125.94;5063640;28;20445;-74
2023/04/04 09:24:19;;;;;;;5.00;4.60;;;;;;;1.03;96.49;97122.19;5059119;28;20435;-75
2023/04/04 09:26:47;;;;;;;5.13;4.63;;;;;;;0.79;97.25;97151.06;5074345;28;20462;-75
2023/04/04 09:29:17;;;;;;;5.93;5.17;;;;;;;0.76;99.48;97125.53;5043205;28;20441;-74
2023/04/04 09:31:45;;;;;;;4.37;3.97;;;;;;;0.66;100.00;97114.22;5053979;28;20510;-75
2023/04/04 09:34:13;;;;;;;5.03;4.63;;;;;;;0.33;100.00;97102.91;5053905;28;20438;-74
2023/04/04 09:36:40;;;;;;;4.67;4.27;;;;;;;0.56;100.00;97149.53;5054271;28;20429;-74
2023/04/04 09:39:07;;;;;;;6.00;4.70;;;;;;;0.64;100.00;97145.69;5049433;28;20457;-75
2023/04/04 09:41:38;;;;;;;6.80;5.27;;;;;;;0.56;100.00;97125.31;5071962;28;20799;-75
2023/04/04 09:44:06;;;;;;;5.23;4.57;;;;;;;1.10;100.00;97144.41;5040934;28;20805;-75
2023/04/04 09:46:36;;;;;;;5.60;5.10;;;;;;;1.11;100.00;97112.13;5071932;28;20428;-75
2023/04/04 09:49:03;;;;;;;4.00;3.70;;;;;;;1.25;99.60;97112.50;5089486;28;20419;-75
2023/04/04 09:51:37;;;;;;;6.00;5.40;;;;;;;1.56;98.68;97137.00;5080629;28;20436;-75
2023/04/04 09:54:05;;;;;;;4.77;4.37;;;;;;;1.79;96.44;97112.41;5053744;28;20531;-75
2023/04/04 09:56:38;;;;;;;7.63;5.40;;;;;;;1.16;91.62;97085.34;5053852;28;20454;-75
2023/04/04 09:59:06;;;;;;;8.50;4.50;;;;;;;1.30;90.73;97104.72;5050614;28;20494;-75
2023/04/04 10:01:33;;;;;;;4.73;4.23;;;;;;;1.28;89.04;97085.97;5037253;28;20832;-74
2023/04/04 10:04:02;;;;;;;4.93;3.90;;;;;;;1.18;87.13;97101.50;5067210;28;20527;-74
2023/04/04 10:06:30;;;;;;;4.00;3.70;;;;;;;1.42;86.57;97066.28;5053457;28;20448;-74
2023/04/04 10:08:58;;;;;;;4.00;3.43;;;;;;;1.90;83.71;97124.50;5041179;28;20531;-75
2023/04/04 10:11:29;;;;;;;4.67;4.27;;;;;;;1.97;88.60;97096.38;5084906;28;20797;-75
2023/04/04 10:13:58;;;;;;;4.37;3.97;;;;;;;2.14;86.46;97116.28;5058386;28;20817;-75
2023/04/04 10:16:25;;;;;;;6.80;5.10;;;;;;;2.39;85.23;97105.97;5030736;28;20973;-75
2023/04/04 10:18:52;;;;;;;4.87;3.70;;;;;;;2.63;83.75;97099.31;5073469;28;20551;-75
2023/04/04 10:21:19;;;;;;;6.17;3.33;;;;;;;2.34;84.88;97101.53;5060705;28;20930;-75
2023/04/04 10:23:46;;;;;;;4.00;3.60;;;;;;;2.51;84.19;97130.03;5075869;28;20991;-75
2023/04/04 10:26:13;;;;;;;5.10;4.03;;;;;;;1.78;83.67;97106.44;5055489;28;20507;-75
2023/04/04 10:28:41;;;;;;;4.60;4.20;;;;;;;1.68;84.36;97129.00;5095408;28;20514;-75
2023/04/04 10:31:12;;;;;;;4.37;3.97;;;;;;;1.31;84.36;97093.28;5060366;28;20441;-75
2023/04/04 10:33:51;;;;;;;4.97;4.23;;;;;;;1.74;84.80;97122.81;5057165;28;20557;-75
2023/04/04 10:36:30;;;;;;;4.23;3.70;;;;;;;1.64;83.74;97112.31;5070751;28;20785;-74
2023/04/04 10:39:09;;;;;;;5.37;4.87;;;;;;;1.84;84.49;97129.91;5068236;28;20985;-75
2023/04/04 10:41:37;;;;;;;4.37;4.07;;;;;;;1.48;85.33;97074.94;5037012;28;20460;-75
2023/04/04 10:44:22;;;;;;;5.10;4.60;;;;;;;1.39;87.40;97076.41;5071536;28;20985;-74
2023/04/04 10:46:52;;;;;;;4.83;4.43;;;;;;;1.41;85.05;97072.53;5080646;28;20451;-74
2023/04/04 10:49:20;;;;;;;4.50;4.13;;;;;;;1.75;86.67;97127.78;5059214;28;20421;-75
2023/04/04 10:51:48;;;;;;;4.50;4.10;;;;;;;1.63;85.21;97095.91;5066231;28;20456;-75
2023/04/04 10:54:26;;;;;;;5.97;4.70;;;;;;;1.85;86.83;97089.78;5045577;28;20424;-75
2023/04/04 10:56:59;;;;;;;5.70;3.93;;;;;;;2.17;86.05;97095.72;5056849;28;20821;-75
2023/04/04 10:59:26;;;;;;;4.83;4.23;;;;;;;1.99;85.53;97109.94;5062238;28;20455;-75
2023/04/04 11:02:00;;;;;;;5.00;4.50;;;;;;;2.13;85.91;97119.94;5044230;28;20487;-74
2023/04/04 11:04:30;;;;;;;4.37;3.90;;;;;;;2.07;83.77;97114.69;5070598;28;20435;-74
2023/04/04 11:07:15;;;;;;;4.47;4.07;;;;;;;2.15;85.07;97073.53;5075130;28;20425;-75
2023/04/04 11:09:48;;;;;;;4.97;4.53;;;;;;;2.45;84.13;97114.63;5073598;28;20421;-74
2023/04/04 11:12:20;;;;;;;3.80;3.53;;;;;;;2.35;82.40;97117.97;5080959;28;20472;-74
2023/04/04 11:15:08;;;;;;;5.70;4.10;;;;;;;2.24;81.81;97100.69;5078805;28;20425;-75
2023/04/04 11:17:55;;;;;;;6.20;4.10;;;;;;;2.34;82.35;97098.91;5059375;28;20444;-75
2023/04/04 11:20:32;;;;;;;4.50;4.20;;;;;;;2.40;81.34;97104.16;5056846;28;20555;-75
2023/04/04 11:23:48;;;;;;;4.37;3.97;;;;;;;2.08;82.59;97098.00;5074585;28;20795;-75
2023/04/04 11:26:24;;;;;;;4.87;4.17;;;;;;;2.24;81.88;97092.88;5030733;28;20436;-75
2023/04/04 11:28:51;;;;;;;4.40;4.00;;;;;;;2.12;81.72;97093.06;5049978;28;20972;-75
2023/04/04 11:31:18;;;;;;;5.00;4.60;;;;;;;2.35;81.38;97100.50;5077344;28;20515;-75
2023/04/04 11:34:07;;;;;;;4.97;4.43;;;;;;;2.40;82.30;97101.53;5066012;28;20468;-74
2023/04/04 11:36:34;;;;;;;4.87;4.37;;;;;;;2.48;79.84;97094.03;5042864;28;20445;-75
2023/04/04 11:39:19;;;;;;;4.13;3.73;;;;;;;2.53;79.63;97080.19;5055853;28;20866;-75
2023/04/04 11:41:57;;;;;;;4.67;4.17;;;;;;;2.69;81.20;97086.28;5074005;28;20547;-75